Ana Sayfa
METAR-TAF:

METAR-TAF

Havaalanları :

Monticello Municipal Airport/Ellis Field

Monticello, Arkansas, Amerika Birleşik Devletleri

Enlem: 33-38-18N, Boylam: 091-45-04W, yükseklik: 82 m

Güncel hava durumu gözlemi

Rapor saat 21:53 UTC de 1 saat ve 8 dakika önce yapıldı.
Rüzgar değişken yönden 6 kt
Sıcaklık 32°C
Nem 43%
Basınç 1015 hPa
Görüş mesafesi: 16.1 km
Açık gökyüzü

METAR: KLLQ 212153Z AUTO VRB06KT 10SM CLR 32/18 A2998 RMK AO2 SLP148 T03170183

Saat: 18:01 (23:01 UTC)

Tahmin

Rapor saat 17:20 UTC de 5 saat ve 41 dakika önce yapıldı.
Ayın 21'si saat 18 UTC'den ayın 22'si saat 18 UTC'ye kadar geçerli Tahmin
Rüzgar kuzey/kuzeydoğudan 2 kt
Görüş mesafesi: 10 km
25000 ft yükseklikte çok bulutlu
Ayın 22'si saat 1000 UTC'den
Rüzgar doğu/güneydoğudan 2 kt
Görüş mesafesi: 10 km
10000 ft yükseklikte parçalı çok bulutlu

TAF: KLLQ 211720Z 2118/2218 02002KT P6SM OVC250 FM221000 11002KT P6SM BKN100

4.000'den fazla havaalanı için hava durumu gözlemleri ve tahminleri (METAR ve TAF raporları).

Kullanılabilir istasyonlar harita üzerinde sarı ve kırmızı noktalarla gösterilir.

İstasyonun adını görmek için fareyi noktanın üzerinde gezdirin.

Sonrasında hava gözlem ve tahminlerini görmek için tıklayın.

Haritayı değiştirmek için: yaklaştırmak için siyah artı işaretli yeşil düğmeye ve uzaklaştırmak için de eksi işaretli düğmeye hızla tıklayın; bitişik haritalar için yeşil okları kullanın.


METAR-TAF: